createdAt,value
2023-01-28T00:00:14.406Z,91.40
2023-01-28T00:02:42.445Z,90.90
2023-01-28T00:05:12.781Z,90.10
2023-01-28T00:07:40.887Z,89.40
2023-01-28T00:10:10.172Z,90.20
2023-01-28T00:12:38.469Z,90.60
2023-01-28T00:15:07.412Z,90.40
2023-01-28T00:17:36.896Z,89.70
2023-01-28T00:20:06.188Z,89.40
2023-01-28T00:22:35.761Z,90.10
2023-01-28T00:25:03.841Z,91.50
2023-01-28T00:27:32.187Z,91.40
2023-01-28T00:30:00.266Z,90.80
2023-01-28T00:32:28.721Z,90.70
2023-01-28T00:34:56.671Z,90.80
2023-01-28T00:37:24.721Z,90.90
2023-01-28T00:39:54.038Z,90.90
2023-01-28T00:42:22.126Z,91.10
2023-01-28T00:44:50.271Z,91.60
2023-01-28T00:47:18.303Z,92.10
2023-01-28T00:49:46.535Z,91.30
2023-01-28T00:52:14.666Z,91.40
2023-01-28T00:54:42.641Z,91.80
2023-01-28T00:57:12.731Z,92.30
2023-01-28T00:59:40.647Z,92.60
2023-01-28T01:02:13.292Z,92.70
2023-01-28T01:04:55.131Z,93.10
2023-01-28T01:07:32.181Z,92.80
2023-01-28T01:10:01.052Z,92.50
2023-01-28T01:12:30.455Z,91.80
2023-01-28T01:14:58.784Z,91.50
2023-01-28T01:17:26.833Z,91.50
2023-01-28T01:19:54.770Z,92.00
2023-01-28T01:22:22.817Z,91.30
2023-01-28T01:24:50.804Z,91.30
2023-01-28T01:27:18.788Z,91.40
2023-01-28T01:29:48.102Z,91.90
2023-01-28T01:32:19.451Z,92.00
2023-01-28T01:34:47.431Z,92.10
2023-01-28T01:37:15.521Z,91.90
2023-01-28T01:39:43.449Z,91.80
2023-01-28T01:42:12.912Z,92.00
2023-01-28T01:45:08.052Z,92.40
2023-01-28T01:47:42.737Z,92.00
2023-01-28T01:50:19.726Z,91.70
2023-01-28T01:52:52.445Z,91.40
2023-01-28T01:55:24.464Z,90.80
2023-01-28T01:57:54.546Z,90.90
2023-01-28T02:00:24.115Z,90.80
2023-01-28T02:02:53.362Z,90.70
2023-01-28T02:05:23.717Z,90.40
2023-01-28T02:07:55.045Z,90.20
2023-01-28T02:10:24.764Z,89.60
2023-01-28T02:12:58.004Z,89.60
2023-01-28T02:15:29.799Z,89.10
2023-01-28T02:17:58.611Z,89.50
2023-01-28T02:20:33.758Z,89.40
2023-01-28T02:23:28.689Z,91.10
2023-01-28T02:26:36.593Z,91.80
2023-01-28T02:29:11.181Z,92.20
2023-01-28T02:31:45.314Z,92.30
2023-01-28T02:34:20.766Z,92.40
2023-01-28T02:36:55.060Z,91.90
2023-01-28T02:39:28.198Z,91.60
2023-01-28T02:42:01.122Z,91.60
2023-01-28T02:44:30.460Z,91.40
2023-01-28T02:47:16.284Z,90.50
2023-01-28T02:49:47.613Z,91.70
2023-01-28T02:52:50.983Z,90.50
2023-01-28T02:55:28.848Z,90.60
2023-01-28T02:58:06.432Z,90.80
2023-01-28T03:00:46.405Z,91.80
2023-01-28T03:03:20.023Z,92.20
2023-01-28T03:06:05.240Z,92.20
2023-01-28T03:08:54.725Z,92.10
2023-01-28T03:11:40.905Z,91.90
2023-01-28T03:14:27.633Z,91.30
2023-01-28T03:17:18.464Z,90.60
2023-01-28T03:20:04.741Z,91.00
2023-01-28T03:22:53.719Z,91.20
2023-01-28T03:25:41.393Z,91.10
2023-01-28T03:28:34.409Z,91.00
2023-01-28T03:31:24.578Z,91.00
2023-01-28T03:34:12.786Z,91.00
2023-01-28T03:36:54.326Z,90.80
2023-01-28T03:39:28.297Z,90.80
2023-01-28T03:42:04.571Z,90.90
2023-01-28T03:44:51.661Z,91.50
2023-01-28T03:47:20.119Z,92.00
2023-01-28T03:49:51.721Z,92.20
2023-01-28T03:52:21.957Z,92.10
2023-01-28T03:54:51.962Z,92.00
2023-01-28T03:57:22.665Z,91.80
2023-01-28T03:59:50.875Z,91.70
2023-01-28T04:02:19.574Z,91.40
2023-01-28T04:04:50.207Z,91.30
2023-01-28T04:07:18.522Z,91.30
2023-01-28T04:09:46.609Z,91.40
2023-01-28T04:12:14.937Z,91.20
2023-01-28T04:14:42.925Z,91.10
2023-01-28T04:17:11.133Z,91.30
2023-01-28T04:19:40.581Z,92.00
2023-01-28T04:22:12.515Z,92.00
2023-01-28T04:24:40.928Z,91.80
2023-01-28T04:27:10.923Z,91.80
2023-01-28T04:29:38.939Z,91.70
2023-01-28T04:32:07.098Z,91.60
2023-01-28T04:34:35.038Z,91.50
2023-01-28T04:37:03.024Z,91.30
2023-01-28T04:39:32.373Z,91.30
2023-01-28T04:42:00.402Z,91.90
2023-01-28T04:44:28.351Z,92.10
2023-01-28T04:46:56.450Z,92.30
2023-01-28T04:49:26.589Z,91.70
2023-01-28T04:51:54.621Z,91.20
2023-01-28T04:54:22.591Z,92.40
2023-01-28T04:56:51.925Z,91.00
2023-01-28T04:59:20.727Z,91.50
2023-01-28T05:01:49.072Z,90.90
2023-01-28T05:04:17.471Z,91.00
2023-01-28T05:06:45.458Z,91.00
2023-01-28T05:09:13.853Z,91.40
2023-01-28T05:11:41.827Z,90.60
2023-01-28T05:14:11.157Z,90.50
2023-01-28T05:16:39.253Z,90.90
2023-01-28T05:19:07.213Z,90.80
2023-01-28T05:21:35.647Z,90.60
2023-01-28T05:24:03.754Z,90.60
2023-01-28T05:26:31.889Z,90.80
2023-01-28T05:28:59.946Z,91.90
2023-01-28T05:31:29.682Z,91.90
2023-01-28T05:33:57.640Z,91.80
2023-01-28T05:36:25.747Z,92.10
2023-01-28T05:38:53.738Z,91.80
2023-01-28T05:41:21.814Z,91.00
2023-01-28T05:43:49.776Z,90.90
2023-01-28T05:46:17.732Z,90.80
2023-01-28T05:48:47.181Z,91.60
2023-01-28T05:51:15.154Z,91.80
2023-01-28T05:53:43.126Z,91.40
2023-01-28T05:56:11.320Z,91.00
2023-01-28T05:58:39.371Z,91.50
2023-01-28T06:01:07.427Z,92.20
2023-01-28T06:03:35.396Z,91.90
2023-01-28T06:06:05.011Z,91.50
2023-01-28T06:08:33.096Z,91.90
2023-01-28T06:11:01.069Z,92.20
2023-01-28T06:13:29.096Z,91.40
2023-01-28T06:15:57.250Z,91.00
2023-01-28T06:18:25.321Z,91.20
2023-01-28T06:20:53.451Z,91.20
2023-01-28T06:23:22.772Z,91.30
2023-01-28T06:25:55.784Z,91.50
2023-01-28T06:28:24.401Z,91.70
2023-01-28T06:30:53.084Z,91.70
2023-01-28T06:33:21.438Z,91.70
2023-01-28T06:35:49.562Z,91.40
2023-01-28T06:38:18.239Z,92.20
2023-01-28T06:40:52.836Z,92.60
2023-01-28T06:43:20.780Z,91.90
2023-01-28T06:45:48.814Z,91.30
2023-01-28T06:48:16.831Z,91.70
2023-01-28T06:50:44.796Z,91.70
2023-01-28T06:53:12.809Z,91.70
2023-01-28T06:55:40.876Z,91.60
2023-01-28T06:58:10.380Z,91.90
2023-01-28T07:00:38.800Z,91.50
2023-01-28T07:03:06.912Z,91.80
2023-01-28T07:05:35.037Z,91.50
2023-01-28T07:08:03.356Z,91.30
2023-01-28T07:10:31.779Z,91.30
2023-01-28T07:12:59.846Z,90.80
2023-01-28T07:15:29.309Z,90.90
2023-01-28T07:17:59.846Z,91.40
2023-01-28T07:20:28.011Z,91.40
2023-01-28T07:22:56.040Z,91.60
2023-01-28T07:25:24.151Z,90.90
2023-01-28T07:27:54.024Z,91.40
2023-01-28T07:30:25.325Z,91.10
2023-01-28T07:32:58.519Z,91.10
2023-01-28T07:35:27.615Z,91.50
2023-01-28T07:37:56.115Z,92.30
2023-01-28T07:40:24.961Z,92.10
2023-01-28T07:42:55.533Z,91.90
2023-01-28T07:45:24.319Z,91.90
2023-01-28T07:47:58.204Z,91.80
2023-01-28T07:50:26.712Z,91.60
2023-01-28T07:52:54.776Z,91.30
2023-01-28T07:55:22.955Z,91.20
2023-01-28T07:57:53.559Z,91.30
2023-01-28T08:00:22.644Z,91.20
2023-01-28T08:02:51.233Z,90.90
2023-01-28T08:05:22.090Z,91.10
2023-01-28T08:07:50.640Z,91.40
2023-01-28T08:10:20.668Z,91.30
2023-01-28T08:12:56.179Z,91.60
2023-01-28T08:15:24.421Z,91.40
2023-01-28T08:17:54.679Z,91.30
2023-01-28T08:20:24.966Z,91.50
2023-01-28T08:22:53.017Z,91.70
2023-01-28T08:25:21.431Z,91.70
2023-01-28T08:27:49.451Z,91.70
2023-01-28T08:30:18.065Z,91.60
2023-01-28T08:32:46.180Z,91.30
2023-01-28T08:35:14.200Z,92.00
2023-01-28T08:37:43.530Z,91.90
2023-01-28T08:40:12.711Z,91.20
2023-01-28T08:42:40.668Z,91.20
2023-01-28T08:45:10.029Z,91.50
2023-01-28T08:47:38.043Z,91.70
2023-01-28T08:50:07.068Z,91.70
2023-01-28T08:52:35.104Z,92.30
2023-01-28T08:55:04.480Z,91.60
2023-01-28T08:57:32.497Z,91.40
2023-01-28T09:00:00.460Z,91.50
2023-01-28T09:02:31.825Z,91.60
2023-01-28T09:05:01.053Z,91.70
2023-01-28T09:07:29.051Z,91.50
2023-01-28T09:09:57.170Z,91.70
2023-01-28T09:12:27.196Z,91.30
2023-01-28T09:14:55.233Z,91.20
2023-01-28T09:17:23.498Z,90.50
2023-01-28T09:19:52.203Z,90.50
2023-01-28T09:22:20.323Z,90.20
2023-01-28T09:24:48.457Z,90.20
2023-01-28T09:27:16.659Z,90.20
2023-01-28T09:29:46.041Z,89.90
2023-01-28T09:32:14.059Z,88.50
2023-01-28T09:34:42.042Z,88.30
2023-01-28T09:37:11.382Z,88.30
2023-01-28T09:39:39.670Z,87.70
2023-01-28T09:42:28.004Z,88.20
2023-01-28T09:45:04.113Z,88.50
2023-01-28T09:47:36.500Z,87.40
2023-01-28T09:50:10.433Z,87.20
2023-01-28T09:52:42.198Z,86.50
2023-01-28T09:55:19.457Z,85.60
2023-01-28T09:57:51.906Z,85.70
2023-01-28T10:00:24.458Z,86.40
2023-01-28T10:03:28.459Z,86.40
2023-01-28T10:06:10.524Z,86.40
2023-01-28T10:09:01.245Z,85.70
2023-01-28T10:11:44.621Z,85.20
2023-01-28T10:14:22.469Z,85.20
2023-01-28T10:16:56.536Z,85.20
2023-01-28T10:19:28.944Z,85.10
2023-01-28T10:22:01.579Z,85.20
2023-01-28T10:24:34.824Z,85.20
2023-01-28T10:27:03.944Z,84.60
2023-01-28T10:29:36.038Z,84.10
2023-01-28T10:32:24.461Z,83.70
2023-01-28T10:34:53.887Z,82.90
2023-01-28T10:37:22.821Z,82.30
2023-01-28T10:39:53.051Z,82.10
2023-01-28T10:42:29.188Z,82.90
2023-01-28T10:45:00.302Z,82.70
2023-01-28T10:47:34.326Z,82.30
2023-01-28T10:50:03.964Z,81.80
2023-01-28T10:52:32.234Z,81.30
2023-01-28T10:55:04.968Z,80.80
2023-01-28T10:57:34.785Z,80.60
2023-01-28T11:00:13.617Z,81.00
2023-01-28T11:02:44.520Z,80.90
2023-01-28T11:05:19.087Z,79.70
2023-01-28T11:07:48.397Z,79.00
2023-01-28T11:10:33.761Z,77.30
2023-01-28T11:13:03.942Z,77.70
2023-01-28T11:15:32.568Z,77.90
2023-01-28T11:18:06.441Z,79.00
2023-01-28T11:20:39.487Z,77.90
2023-01-28T11:23:07.771Z,77.70
2023-01-28T11:25:37.182Z,77.00
2023-01-28T11:28:09.452Z,76.90
2023-01-28T11:30:40.594Z,76.60
2023-01-28T11:33:18.891Z,76.90
2023-01-28T11:35:54.831Z,75.60
2023-01-28T11:38:24.661Z,75.50
2023-01-28T11:40:53.906Z,75.90
2023-01-28T11:43:24.271Z,75.60
2023-01-28T11:46:04.799Z,75.20
2023-01-28T11:48:47.037Z,75.90
2023-01-28T11:51:29.708Z,75.90
2023-01-28T11:54:11.288Z,75.40
2023-01-28T11:56:53.792Z,75.10
2023-01-28T12:00:00.439Z,74.90
2023-01-28T12:02:53.816Z,73.90
2023-01-28T12:05:40.340Z,74.70
2023-01-28T12:08:13.983Z,74.40
2023-01-28T12:10:52.664Z,74.40
2023-01-28T12:13:40.691Z,73.40
2023-01-28T12:16:25.939Z,73.90
2023-01-28T12:19:27.162Z,73.30
2023-01-28T12:22:10.343Z,73.40
2023-01-28T12:24:52.707Z,72.90
2023-01-28T12:27:34.537Z,74.20
2023-01-28T12:30:10.963Z,73.10
2023-01-28T12:32:50.921Z,73.10
2023-01-28T12:35:51.181Z,73.00
2023-01-28T12:38:29.379Z,73.30
2023-01-28T12:41:02.565Z,73.80
2023-01-28T12:43:48.081Z,73.30
2023-01-28T12:46:26.351Z,71.70
2023-01-28T12:49:01.186Z,71.80
2023-01-28T12:51:34.334Z,71.60
2023-01-28T12:54:08.195Z,71.10
2023-01-28T12:56:41.369Z,71.10
2023-01-28T12:59:16.583Z,71.40
2023-01-28T13:01:49.050Z,70.80
2023-01-28T13:04:26.575Z,70.90
2023-01-28T13:06:58.376Z,71.00
2023-01-28T13:09:29.850Z,70.80
2023-01-28T13:12:00.324Z,70.40
2023-01-28T13:14:32.246Z,70.60
2023-01-28T13:17:11.125Z,71.30
2023-01-28T13:19:40.873Z,71.50
2023-01-28T13:22:17.542Z,71.80
2023-01-28T13:24:46.922Z,71.90
2023-01-28T13:27:24.666Z,72.30
2023-01-28T13:30:03.577Z,72.60
2023-01-28T13:32:36.733Z,72.30
2023-01-28T13:35:07.760Z,72.40
2023-01-28T13:37:39.538Z,72.10
2023-01-28T13:40:25.343Z,70.80
2023-01-28T13:43:01.300Z,70.50
2023-01-28T13:45:29.822Z,70.70
2023-01-28T13:48:03.380Z,71.10
2023-01-28T13:50:40.289Z,71.10
2023-01-28T13:53:21.151Z,71.60
2023-01-28T13:55:53.987Z,71.20
2023-01-28T13:58:58.313Z,71.60
2023-01-28T14:01:51.915Z,72.20
2023-01-28T14:04:45.258Z,72.30
2023-01-28T14:07:39.408Z,72.90
2023-01-28T14:10:18.909Z,73.40
2023-01-28T14:13:06.964Z,74.80
2023-01-28T14:15:59.736Z,74.80
2023-01-28T14:18:30.935Z,74.60
2023-01-28T14:21:02.948Z,75.40
2023-01-28T14:23:32.484Z,74.40
2023-01-28T14:26:14.006Z,74.70
2023-01-28T14:28:52.921Z,75.10
2023-01-28T14:31:28.291Z,75.40
2023-01-28T14:34:00.349Z,75.30
2023-01-28T14:36:29.245Z,75.80
2023-01-28T14:38:58.374Z,76.10
2023-01-28T14:41:28.767Z,75.70
2023-01-28T14:43:58.786Z,76.00
2023-01-28T14:46:36.168Z,76.50
2023-01-28T14:49:25.370Z,76.90
2023-01-28T14:52:11.526Z,77.40
2023-01-28T14:54:55.209Z,78.20
2023-01-28T14:57:42.439Z,79.00
2023-01-28T15:00:21.975Z,78.60
2023-01-28T15:02:50.157Z,78.50
2023-01-28T15:05:20.344Z,78.90
2023-01-28T15:07:50.043Z,79.70
2023-01-28T15:10:22.129Z,79.50
2023-01-28T15:12:54.233Z,79.70
2023-01-28T15:15:30.034Z,79.90
2023-01-28T15:18:02.751Z,80.00
2023-01-28T15:20:31.141Z,80.70
2023-01-28T15:22:59.720Z,80.70
2023-01-28T15:25:30.472Z,80.40
2023-01-28T15:28:02.795Z,80.90
2023-01-28T15:30:33.337Z,82.90
2023-01-28T15:33:04.031Z,82.50
2023-01-28T15:35:32.561Z,82.20
2023-01-28T15:38:00.741Z,82.20
2023-01-28T15:40:32.835Z,82.50
2023-01-28T15:43:00.841Z,82.30
2023-01-28T15:45:31.493Z,82.50
2023-01-28T15:48:08.936Z,84.00
2023-01-28T15:50:39.514Z,84.30
2023-01-28T15:53:11.109Z,84.40
2023-01-28T15:55:41.079Z,84.90
2023-01-28T15:58:30.699Z,85.90
2023-01-28T16:01:20.707Z,86.00
2023-01-28T16:04:01.147Z,85.50
2023-01-28T16:06:33.524Z,85.50
2023-01-28T16:09:05.821Z,88.20
2023-01-28T16:11:44.709Z,88.50
2023-01-28T16:14:24.247Z,87.60
2023-01-28T16:17:00.062Z,88.00
2023-01-28T16:19:37.432Z,89.40
2023-01-28T16:22:06.098Z,90.00
2023-01-28T16:24:36.857Z,90.20
2023-01-28T16:27:06.951Z,89.60
2023-01-28T16:29:35.336Z,88.30
2023-01-28T16:32:04.881Z,89.50
2023-01-28T16:34:32.917Z,90.30
2023-01-28T16:37:01.770Z,89.30
2023-01-28T16:39:30.967Z,89.30
2023-01-28T16:42:00.333Z,89.20
2023-01-28T16:44:28.288Z,90.20
2023-01-28T16:46:56.393Z,90.40
2023-01-28T16:49:25.846Z,90.00
2023-01-28T16:51:54.342Z,90.00
2023-01-28T16:54:22.692Z,90.20
2023-01-28T16:56:50.818Z,90.20
2023-01-28T16:59:18.865Z,90.60
2023-01-28T17:01:49.066Z,90.60
2023-01-28T17:04:17.598Z,90.20
2023-01-28T17:06:49.204Z,91.30
2023-01-28T17:09:17.279Z,91.80
2023-01-28T17:11:45.274Z,91.00
2023-01-28T17:14:13.479Z,91.10
2023-01-28T17:16:41.585Z,91.90
2023-01-28T17:19:09.776Z,92.40
2023-01-28T17:21:37.802Z,91.80
2023-01-28T17:24:08.134Z,91.60
2023-01-28T17:26:37.022Z,92.40
2023-01-28T17:29:06.600Z,93.00
2023-01-28T17:31:35.345Z,92.50
2023-01-28T17:34:05.426Z,92.20
2023-01-28T17:36:33.398Z,92.20
2023-01-28T17:39:01.407Z,92.80
2023-01-28T17:41:30.813Z,93.20
2023-01-28T17:43:59.586Z,92.70
2023-01-28T17:46:28.069Z,92.50
2023-01-28T17:48:56.144Z,92.40
2023-01-28T17:51:24.177Z,92.60
2023-01-28T17:53:54.208Z,92.60
2023-01-28T17:56:24.122Z,92.50
2023-01-28T17:58:56.066Z,92.70
2023-01-28T18:01:25.622Z,92.80
2023-01-28T18:03:54.055Z,92.80
2023-01-28T18:06:22.579Z,92.60
2023-01-28T18:08:50.642Z,92.20
2023-01-28T18:11:20.443Z,92.20
2023-01-28T18:13:48.603Z,92.50
2023-01-28T18:16:20.999Z,92.30
2023-01-28T18:18:50.340Z,91.90
2023-01-28T18:21:22.374Z,92.00
2023-01-28T18:23:52.988Z,92.20
2023-01-28T18:26:22.156Z,92.60
2023-01-28T18:28:50.261Z,92.70
2023-01-28T18:31:19.664Z,93.40
2023-01-28T18:33:48.546Z,93.60
2023-01-28T18:36:17.020Z,93.90
2023-01-28T18:38:46.157Z,94.20
2023-01-28T18:41:14.549Z,93.90
2023-01-28T18:43:42.609Z,94.00
2023-01-28T18:46:13.026Z,93.10
2023-01-28T18:48:42.633Z,92.80
2023-01-28T18:51:28.818Z,92.80
2023-01-28T18:53:59.485Z,93.20
2023-01-28T18:56:27.967Z,93.00
2023-01-28T18:58:59.699Z,93.10
2023-01-28T19:01:28.040Z,92.70
2023-01-28T19:03:58.379Z,92.50
2023-01-28T19:06:27.300Z,93.40
2023-01-28T19:08:56.709Z,93.00
2023-01-28T19:11:26.780Z,93.00
2023-01-28T19:13:54.937Z,93.30
2023-01-28T19:16:23.623Z,93.70
2023-01-28T19:18:55.501Z,93.70
2023-01-28T19:21:25.160Z,93.10
2023-01-28T19:23:57.467Z,93.20
2023-01-28T19:26:26.760Z,93.80
2023-01-28T19:28:55.120Z,94.10
2023-01-28T19:31:24.671Z,94.50
2023-01-28T19:33:55.825Z,95.00
2023-01-28T19:36:26.117Z,94.80
2023-01-28T19:38:54.834Z,94.10
2023-01-28T19:41:22.794Z,93.50
2023-01-28T19:43:52.823Z,93.50
2023-01-28T19:46:20.889Z,93.70
2023-01-28T19:48:48.951Z,93.70
2023-01-28T19:51:17.871Z,94.20
2023-01-28T19:53:50.180Z,94.30
2023-01-28T19:56:19.270Z,94.00
2023-01-28T19:58:47.821Z,93.50
2023-01-28T20:01:17.771Z,93.20
2023-01-28T20:03:50.925Z,92.90
2023-01-28T20:06:19.509Z,93.30
2023-01-28T20:08:53.296Z,94.20
2023-01-28T20:11:21.457Z,94.50
2023-01-28T20:13:51.570Z,94.70
2023-01-28T20:16:21.847Z,94.60
2023-01-28T20:18:51.290Z,94.60
2023-01-28T20:21:22.417Z,94.70
2023-01-28T20:23:55.197Z,94.60
2023-01-28T20:26:26.187Z,94.10
2023-01-28T20:28:54.353Z,93.50
2023-01-28T20:31:22.506Z,94.20
2023-01-28T20:33:50.624Z,94.50
2023-01-28T20:36:18.921Z,93.80
2023-01-28T20:38:48.333Z,93.90
2023-01-28T20:41:20.135Z,94.00
2023-01-28T20:43:49.146Z,93.90
2023-01-28T20:46:19.308Z,93.30
2023-01-28T20:48:47.907Z,94.10
2023-01-28T20:51:17.759Z,94.80
2023-01-28T20:53:46.445Z,94.60
2023-01-28T20:56:17.038Z,94.10
2023-01-28T20:58:48.264Z,93.60
2023-01-28T21:01:20.159Z,93.40
2023-01-28T21:03:48.528Z,93.90
2023-01-28T21:06:17.232Z,94.70
2023-01-28T21:08:46.005Z,94.90
2023-01-28T21:11:14.332Z,94.30
2023-01-28T21:13:42.650Z,94.80
2023-01-28T21:16:11.998Z,95.10
2023-01-28T21:18:40.223Z,94.40
2023-01-28T21:21:11.747Z,93.90
2023-01-28T21:23:40.833Z,93.70
2023-01-28T21:26:08.931Z,94.00
2023-01-28T21:28:37.628Z,94.20
2023-01-28T21:31:07.989Z,94.70
2023-01-28T21:33:39.171Z,95.00
2023-01-28T21:36:11.805Z,94.30
2023-01-28T21:38:40.462Z,93.70
2023-01-28T21:41:09.102Z,93.70
2023-01-28T21:43:37.731Z,94.40
2023-01-28T21:46:06.351Z,94.80
2023-01-28T21:48:34.513Z,94.70
2023-01-28T21:51:26.059Z,94.80
2023-01-28T21:53:54.219Z,94.70
2023-01-28T21:56:22.964Z,94.50
2023-01-28T21:59:08.874Z,95.00
2023-01-28T22:01:36.921Z,94.50
2023-01-28T22:04:07.767Z,94.40
2023-01-28T22:06:37.093Z,94.90
2023-01-28T22:09:05.642Z,94.30
2023-01-28T22:11:33.656Z,94.50
2023-01-28T22:14:01.636Z,94.60
2023-01-28T22:16:29.655Z,95.20
2023-01-28T22:18:57.756Z,95.70
2023-01-28T22:21:25.733Z,95.40
2023-01-28T22:23:55.182Z,94.10
2023-01-28T22:26:23.209Z,94.10
2023-01-28T22:28:51.325Z,94.10
2023-01-28T22:31:19.424Z,94.80
2023-01-28T22:33:47.610Z,95.30
2023-01-28T22:36:17.322Z,94.80
2023-01-28T22:38:46.382Z,94.20
2023-01-28T22:41:19.299Z,94.30
2023-01-28T22:43:48.078Z,94.90
2023-01-28T22:46:17.015Z,94.60
2023-01-28T22:48:45.442Z,94.30
2023-01-28T22:51:17.962Z,94.00
2023-01-28T22:53:47.211Z,94.50
2023-01-28T22:56:17.933Z,94.80
2023-01-28T22:58:46.265Z,94.70
2023-01-28T23:01:15.611Z,95.50
2023-01-28T23:03:47.255Z,96.00
2023-01-28T23:06:16.600Z,96.10
2023-01-28T23:08:45.170Z,94.90
2023-01-28T23:11:15.943Z,94.40
2023-01-28T23:14:03.309Z,94.30
2023-01-28T23:16:49.888Z,94.50
2023-01-28T23:19:36.140Z,94.90
2023-01-28T23:22:21.490Z,95.30
2023-01-28T23:24:49.846Z,95.60
2023-01-28T23:27:17.838Z,95.60
2023-01-28T23:29:47.212Z,95.30
2023-01-28T23:32:15.263Z,94.90
2023-01-28T23:34:45.535Z,94.20
2023-01-28T23:37:14.341Z,94.80
2023-01-28T23:39:43.252Z,95.40
2023-01-28T23:42:12.821Z,95.10
2023-01-28T23:44:40.889Z,94.50
2023-01-28T23:47:10.966Z,94.80
2023-01-28T23:49:40.083Z,94.90
2023-01-28T23:52:09.509Z,94.90
2023-01-28T23:54:37.721Z,95.00
2023-01-28T23:57:06.255Z,95.00
2023-01-28T23:59:34.219Z,95.20
